Time;durP1;ratioP1;P1;durP2;ratioP2;P2;SDS_P1;SDS_P2;PMS_P1;PMS_P2;Temp;Humidity;BMP_temperature;BMP_pressure;BME280_temperature;BME280_humidity;BME280_pressure;Samples;Min_cycle;Max_cycle;Signal;HPM_P1;HPM_P2
2021/06/16 00:01:47;;;;;;;;;;;;;;;16.52;67.17;96956.84;1783426;80;20446;-77
2021/06/16 00:04:14;;;;;;;;;;;;;;;16.52;69.17;96959.03;1771679;81;20124;-78
2021/06/16 00:06:40;;;;;;;;;;;;;;;16.54;65.54;96965.02;1771046;81;20402;-76
2021/06/16 00:09:06;;;;;;;;;;;;;;;16.55;65.26;96961.37;1781018;80;20108;-79
2021/06/16 00:11:33;;;;;;;;;;;;;;;16.59;65.24;96963.20;1778244;80;20405;-80
2021/06/16 00:14:00;;;;;;;;;;;;;;;16.62;65.88;96968.17;1776327;80;20096;-78
2021/06/16 00:16:26;;;;;;;;;;;;;;;16.62;65.48;96966.84;1777073;80;20104;-80
2021/06/16 00:18:53;;;;;;;;;;;;;;;16.64;65.79;96968.84;1776820;81;20108;-78
2021/06/16 00:21:20;;;;;;;;;;;;;;;16.66;65.12;96955.37;1774150;80;20404;-78
2021/06/16 00:23:48;;;;;;;;;;;;;;;16.66;64.57;96962.02;1776775;81;20089;-77
2021/06/16 00:26:15;;;;;;;;;;;;;;;16.63;65.29;96963.70;1776714;81;20111;-78
2021/06/16 00:28:42;;;;;;;;;;;;;;;16.63;65.46;96957.05;1764431;80;20125;-78
2021/06/16 00:31:08;;;;;;;;;;;;;;;16.61;67.32;96957.19;1751869;81;20426;-78
2021/06/16 00:33:34;;;;;;;;;;;;;;;16.60;66.00;96951.56;1711854;83;20108;-77
2021/06/16 00:36:00;;;;;;;;;;;;;;;16.59;65.67;96951.71;1719723;83;20105;-78
2021/06/16 00:38:28;;;;;;;;;;;;;;;16.55;65.26;96946.73;1719765;83;20097;-78
2021/06/16 00:40:56;;;;;;;;;;;;;;;16.53;65.54;96944.73;1712126;82;20141;-77
2021/06/16 00:43:22;;;;;;;;;;;;;;;16.52;65.52;96942.22;1707576;83;20216;-77
2021/06/16 00:45:48;;;;;;;;;;;;;;;16.49;64.08;96935.41;1707489;83;20109;-78
2021/06/16 00:48:15;;;;;;;;;;;;;;;16.43;65.82;96937.87;1707632;83;20432;-78
2021/06/16 00:50:42;;;;;;;;;;;;;;;16.43;65.59;96936.07;1735512;82;20151;-77
2021/06/16 00:53:08;;;;;;;;;;;;;;;16.43;65.78;96932.56;1736407;83;20159;-77
2021/06/16 00:55:40;;;;;;;;;;;;;;;16.44;65.95;96935.56;1736533;83;20133;-78
2021/06/16 00:58:08;;;;;;;;;;;;;;;16.42;66.20;96931.75;1735626;82;20096;-78
2021/06/16 01:00:47;;;;;;;;;;;;;;;16.42;65.28;96937.06;1698846;83;20401;-78
2021/06/16 01:03:22;;;;;;;;;;;;;;;16.42;66.04;96946.89;1778369;81;20211;-79
2021/06/16 01:06:20;;;;;;;;;;;;;;;16.43;66.39;96952.03;1778892;81;20143;-78
2021/06/16 01:08:53;;;;;;;;;;;;;;;16.43;66.41;96949.85;1777666;81;20398;-77
2021/06/16 01:11:21;;;;;;;;;;;;;;;16.37;66.31;96950.03;1768596;80;20093;-79
2021/06/16 01:13:52;;;;;;;;;;;;;;;16.35;65.96;96943.53;1776721;80;20424;-78
2021/06/16 01:16:39;;;;;;;;;;;;;;;16.31;65.99;96945.34;1776769;80;20108;-80
2021/06/16 01:19:24;;;;;;;;;;;;;;;16.27;66.32;96939.53;1767949;81;20122;-79
2021/06/16 01:21:54;;;;;;;;;;;;;;;16.28;67.11;96943.03;1773657;81;20131;-76
2021/06/16 01:24:20;;;;;;;;;;;;;;;16.26;65.70;96941.84;1748109;82;20117;-78
2021/06/16 01:26:51;;;;;;;;;;;;;;;16.25;66.80;96938.85;1739050;81;20159;-81
2021/06/16 01:29:23;;;;;;;;;;;;;;;16.27;66.30;96943.52;1776067;81;20089;-80
2021/06/16 01:31:50;;;;;;;;;;;;;;;16.30;67.47;96935.70;1752186;81;20438;-81
2021/06/16 01:34:20;;;;;;;;;;;;;;;16.29;68.11;96934.03;1707192;84;20150;-79
2021/06/16 01:36:48;;;;;;;;;;;;;;;16.26;66.34;96932.55;1727400;83;20093;-78
2021/06/16 01:39:18;;;;;;;;;;;;;;;16.22;66.95;96929.37;1753569;80;20131;-76
2021/06/16 01:41:45;;;;;;;;;;;;;;;16.19;66.66;96935.52;1759524;82;20151;-79
2021/06/16 01:44:12;;;;;;;;;;;;;;;16.17;66.86;96938.36;1735125;82;20434;-78
2021/06/16 01:46:38;;;;;;;;;;;;;;;16.12;66.76;96936.66;1727619;83;20378;-78
2021/06/16 01:49:05;;;;;;;;;;;;;;;16.08;66.89;96938.00;1727591;83;20097;-78
2021/06/16 01:51:32;;;;;;;;;;;;;;;16.01;66.61;96938.28;1737216;82;20107;-78
2021/06/16 01:54:01;;;;;;;;;;;;;;;15.93;66.94;96942.59;1760777;82;20087;-78
2021/06/16 01:56:28;;;;;;;;;;;;;;;15.88;67.07;96947.57;1756451;82;20104;-78
2021/06/16 01:58:55;;;;;;;;;;;;;;;15.80;66.85;96947.98;1748216;82;20106;-81
2021/06/16 02:01:23;;;;;;;;;;;;;;;15.73;67.33;96947.30;1744026;82;20124;-79
2021/06/16 02:03:51;;;;;;;;;;;;;;;15.67;67.93;96944.45;1727587;83;20113;-77
2021/06/16 02:06:18;;;;;;;;;;;;;;;15.60;67.94;96949.08;1727560;83;20097;-78
2021/06/16 02:08:49;;;;;;;;;;;;;;;15.55;68.10;96950.54;1742012;82;20105;-79
2021/06/16 02:11:18;;;;;;;;;;;;;;;15.50;67.66;96951.02;1724123;83;20395;-79
2021/06/16 02:13:53;;;;;;;;;;;;;;;15.44;68.21;96952.48;1699409;83;20149;-81
2021/06/16 02:16:40;;;;;;;;;;;;;;;15.40;67.30;96950.29;1719671;84;20423;-89
2021/06/16 02:19:09;;;;;;;;;;;;;;;15.36;66.52;96950.28;1721309;82;20145;-80
2021/06/16 02:21:38;;;;;;;;;;;;;;;15.31;66.97;96952.08;1743446;82;20132;-83
2021/06/16 02:24:06;;;;;;;;;;;;;;;15.25;68.11;96950.88;1725774;82;20103;-84
2021/06/16 02:26:32;;;;;;;;;;;;;;;15.22;68.43;96959.15;1746645;82;20099;-80
2021/06/16 02:28:58;;;;;;;;;;;;;;;15.19;68.54;96958.13;1754010;82;20075;-78
2021/06/16 02:31:24;;;;;;;;;;;;;;;15.17;67.31;96961.45;1754584;82;20099;-78
2021/06/16 02:33:52;;;;;;;;;;;;;;;15.13;67.06;96963.55;1749817;82;20107;-82
2021/06/16 02:36:20;;;;;;;;;;;;;;;15.13;67.60;96968.05;1719689;84;20105;-80
2021/06/16 02:38:47;;;;;;;;;;;;;;;15.11;69.59;96968.69;1719939;82;20125;-78
2021/06/16 02:41:15;;;;;;;;;;;;;;;15.10;68.39;96961.71;1719694;82;20097;-82
2021/06/16 02:43:41;;;;;;;;;;;;;;;15.09;68.41;96966.20;1720625;82;20093;-75
2021/06/16 02:46:10;;;;;;;;;;;;;;;15.11;67.64;96966.88;1719918;82;20166;-76
2021/06/16 02:48:39;;;;;;;;;;;;;;;15.14;67.61;96968.39;1720110;82;20101;-80
2021/06/16 02:51:06;;;;;;;;;;;;;;;15.19;68.26;96972.73;1719789;83;20105;-84
2021/06/16 02:53:33;;;;;;;;;;;;;;;15.24;67.69;96972.26;1719774;82;20121;-84
2021/06/16 02:56:03;;;;;;;;;;;;;;;15.31;68.73;96982.63;1752900;82;20214;-78
2021/06/16 02:58:32;;;;;;;;;;;;;;;15.38;68.73;96981.48;1745502;82;20135;-80
2021/06/16 03:01:02;;;;;;;;;;;;;;;15.45;68.37;96986.52;1721198;82;20185;-81
2021/06/16 03:03:30;;;;;;;;;;;;;;;15.50;68.03;96995.35;1719577;83;20109;-82
2021/06/16 03:05:58;;;;;;;;;;;;;;;15.58;68.25;96998.05;1719661;84;20101;-77
2021/06/16 03:08:26;;;;;;;;;;;;;;;15.67;68.72;97006.88;1741090;82;20159;-81
2021/06/16 03:10:53;;;;;;;;;;;;;;;15.74;69.51;96995.95;1740062;81;20117;-79
2021/06/16 03:13:19;;;;;;;;;;;;;;;15.80;68.52;96994.02;1719518;82;20101;-77
2021/06/16 03:15:47;;;;;;;;;;;;;;;15.87;68.52;97001.71;1735237;82;20091;-85
2021/06/16 03:18:15;;;;;;;;;;;;;;;15.95;68.37;97007.57;1728186;82;20159;-80
2021/06/16 03:20:42;;;;;;;;;;;;;;;16.02;68.33;97007.74;1749077;82;20099;-81
2021/06/16 03:23:11;;;;;;;;;;;;;;;16.13;68.14;97010.12;1754778;82;20141;-79
2021/06/16 03:25:38;;;;;;;;;;;;;;;16.23;68.26;97005.50;1753794;82;20173;-81
2021/06/16 03:28:06;;;;;;;;;;;;;;;16.35;67.79;96997.23;1748395;82;20099;-78
2021/06/16 03:30:33;;;;;;;;;;;;;;;16.42;67.20;96996.91;1743235;82;20130;-78
2021/06/16 03:33:00;;;;;;;;;;;;;;;16.49;67.16;97001.91;1754686;82;20143;-82
2021/06/16 03:35:27;;;;;;;;;;;;;;;16.58;66.68;97007.25;1754818;82;20099;-78
2021/06/16 03:37:56;;;;;;;;;;;;;;;16.68;66.67;97006.60;1754749;81;20099;-78
2021/06/16 03:40:27;;;;;;;;;;;;;;;16.76;66.94;97011.93;1751792;80;20127;-80
2021/06/16 03:42:55;;;;;;;;;;;;;;;16.84;65.49;97012.45;1719640;83;20117;-75
2021/06/16 03:45:22;;;;;;;;;;;;;;;16.90;65.93;97009.62;1721361;82;20623;-79
2021/06/16 03:47:49;;;;;;;;;;;;;;;16.95;66.20;97010.83;1748009;82;20100;-78
2021/06/16 03:50:18;;;;;;;;;;;;;;;17.04;65.69;97003.66;1745389;82;20103;-78
2021/06/16 03:52:45;;;;;;;;;;;;;;;17.26;65.10;97010.66;1747259;82;20106;-80
2021/06/16 03:55:12;;;;;;;;;;;;;;;17.69;65.58;97009.09;1749378;82;20107;-80
2021/06/16 03:57:39;;;;;;;;;;;;;;;18.21;65.25;97006.44;1749059;82;20111;-83
2021/06/16 04:00:07;;;;;;;;;;;;;;;18.79;64.47;97017.62;1751087;82;20688;-79
2021/06/16 04:02:34;;;;;;;;;;;;;;;19.38;63.55;97014.02;1744655;82;20163;-79
2021/06/16 04:05:05;;;;;;;;;;;;;;;19.95;62.92;97017.47;1754272;81;20139;-81
2021/06/16 04:07:32;;;;;;;;;;;;;;;20.50;60.94;97014.96;1750922;82;20147;-82
2021/06/16 04:09:58;;;;;;;;;;;;;;;21.10;59.89;97015.61;1754743;81;20099;-80
2021/06/16 04:12:25;;;;;;;;;;;;;;;21.63;59.63;97012.53;1763395;81;20119;-79
2021/06/16 04:14:52;;;;;;;;;;;;;;;22.12;55.04;97010.78;1753805;81;20461;-79
2021/06/16 04:17:19;;;;;;;;;;;;;;;22.64;57.80;97017.09;1736463;81;20402;-83
2021/06/16 04:19:46;;;;;;;;;;;;;;;23.09;53.13;97016.56;1745999;81;20432;-78
2021/06/16 04:22:13;;;;;;;;;;;;;;;23.52;53.97;97016.19;1743018;81;20132;-78
2021/06/16 04:24:40;;;;;;;;;;;;;;;23.95;54.01;97015.41;1740787;81;20098;-84
2021/06/16 04:27:06;;;;;;;;;;;;;;;24.46;52.78;97015.98;1765940;81;20123;-79
2021/06/16 04:29:33;;;;;;;;;;;;;;;24.96;53.95;97019.91;1755386;80;20136;-78
2021/06/16 04:32:00;;;;;;;;;;;;;;;25.41;51.70;97023.01;1739952;81;20108;-78
2021/06/16 04:34:26;;;;;;;;;;;;;;;25.91;46.98;97021.33;1742120;81;20113;-84
2021/06/16 04:36:52;;;;;;;;;;;;;;;26.41;44.63;97026.59;1757347;81;20138;-83
2021/06/16 04:39:20;;;;;;;;;;;;;;;26.91;43.33;97026.09;1764373;80;20142;-81
2021/06/16 04:41:46;;;;;;;;;;;;;;;27.40;42.21;97023.26;1765061;81;20360;-80
2021/06/16 04:44:13;;;;;;;;;;;;;;;27.90;40.56;97025.56;1765011;81;20388;-79
2021/06/16 04:46:39;;;;;;;;;;;;;;;28.32;39.91;97027.30;1765150;81;20391;-85
2021/06/16 04:49:05;;;;;;;;;;;;;;;28.41;40.22;97026.92;1765244;81;20118;-78
2021/06/16 04:51:31;;;;;;;;;;;;;;;28.18;38.54;97027.25;1763958;81;20430;-85
2021/06/16 04:53:58;;;;;;;;;;;;;;;27.81;39.71;97032.39;1758288;82;20115;-79
2021/06/16 04:56:24;;;;;;;;;;;;;;;27.51;39.75;97036.56;1758204;82;20131;-80
2021/06/16 04:58:50;;;;;;;;;;;;;;;27.19;39.66;97034.11;1758521;81;20130;-82
2021/06/16 05:01:16;;;;;;;;;;;;;;;26.94;40.95;97034.56;1759147;81;20185;-85
2021/06/16 05:03:42;;;;;;;;;;;;;;;26.68;45.54;97036.25;1758256;82;20111;-87
2021/06/16 05:06:08;;;;;;;;;;;;;;;26.28;42.96;97034.33;1758377;81;20131;-85
2021/06/16 05:08:34;;;;;;;;;;;;;;;26.05;42.91;97032.27;1758330;82;20157;-84
2021/06/16 05:11:01;;;;;;;;;;;;;;;25.82;42.08;97028.36;1761211;81;20098;-87
2021/06/16 05:13:27;;;;;;;;;;;;;;;25.67;46.71;97025.16;1732368;81;20112;-79
2021/06/16 05:15:55;;;;;;;;;;;;;;;25.65;44.74;97032.14;1732471;82;20139;-78
2021/06/16 05:18:21;;;;;;;;;;;;;;;26.09;44.51;97026.77;1731387;81;20184;-85
2021/06/16 05:20:49;;;;;;;;;;;;;;;26.73;46.60;97022.35;1718074;81;20439;-77
2021/06/16 05:23:15;;;;;;;;;;;;;;;27.38;41.27;97028.08;1725536;82;20121;-80
2021/06/16 05:25:44;;;;;;;;;;;;;;;28.06;39.54;97023.18;1713742;82;20139;-87
2021/06/16 05:28:10;;;;;;;;;;;;;;;28.71;38.10;97021.85;1734267;82;20257;-81
2021/06/16 05:30:37;;;;;;;;;;;;;;;29.26;39.30;97024.45;1735408;81;20125;-79
2021/06/16 05:33:04;;;;;;;;;;;;;;;29.73;37.28;97020.63;1705417;82;20148;-80
2021/06/16 05:35:30;;;;;;;;;;;;;;;30.23;40.25;97024.34;1726766;82;20157;-82
2021/06/16 05:37:57;;;;;;;;;;;;;;;30.54;36.27;97024.72;1707186;82;20154;-84
2021/06/16 05:40:23;;;;;;;;;;;;;;;30.87;34.04;97024.81;1709463;82;20124;-81
2021/06/16 05:42:50;;;;;;;;;;;;;;;31.26;34.20;97024.67;1706740;81;20158;-81
2021/06/16 05:45:16;;;;;;;;;;;;;;;31.64;38.09;97023.36;1707518;82;20169;-81
2021/06/16 05:47:42;;;;;;;;;;;;;;;32.01;39.72;97025.27;1703921;84;20180;-80
2021/06/16 05:50:09;;;;;;;;;;;;;;;32.27;35.42;97034.97;1705781;83;20447;-79
2021/06/16 05:52:35;;;;;;;;;;;;;;;32.54;30.48;97029.34;1704237;82;20428;-82
2021/06/16 05:55:02;;;;;;;;;;;;;;;32.95;31.04;97029.50;1703993;84;20111;-80
2021/06/16 05:57:28;;;;;;;;;;;;;;;33.15;31.83;97023.23;1702191;82;20178;-80
2021/06/16 05:59:55;;;;;;;;;;;;;;;33.44;30.16;97025.47;1703453;83;20167;-79
2021/06/16 06:02:21;;;;;;;;;;;;;;;33.77;28.34;97022.44;1703885;82;20136;-81
2021/06/16 06:04:48;;;;;;;;;;;;;;;34.07;31.76;97027.05;1705985;82;20099;-77
2021/06/16 06:07:15;;;;;;;;;;;;;;;34.32;27.85;97023.14;1705689;82;20165;-77
2021/06/16 06:09:41;;;;;;;;;;;;;;;34.62;27.97;97026.89;1704928;82;20109;-80
2021/06/16 06:12:08;;;;;;;;;;;;;;;34.66;28.25;97030.15;1724994;80;20127;-81
2021/06/16 06:14:38;;;;;;;;;;;;;;;34.77;28.42;97021.33;1752988;80;20143;-79
2021/06/16 06:17:04;;;;;;;;;;;;;;;35.01;27.35;97017.38;1720094;82;20125;-79
2021/06/16 06:19:30;;;;;;;;;;;;;;;35.07;27.01;97018.16;1721944;82;20174;-82
2021/06/16 06:21:56;;;;;;;;;;;;;;;35.38;26.75;97017.94;1720142;82;20173;-79
2021/06/16 06:24:23;;;;;;;;;;;;;;;35.55;26.03;97018.91;1719798;82;20112;-78
2021/06/16 06:26:49;;;;;;;;;;;;;;;35.68;26.35;97020.72;1719981;82;20135;-78
2021/06/16 06:29:15;;;;;;;;;;;;;;;35.79;25.48;97020.89;1721361;82;20101;-78
2021/06/16 06:31:41;;;;;;;;;;;;;;;36.03;25.49;97019.59;1719560;82;20117;-78
2021/06/16 06:34:07;;;;;;;;;;;;;;;36.20;24.62;97023.78;1720336;82;20129;-79
2021/06/16 06:36:33;;;;;;;;;;;;;;;35.95;24.53;97018.85;1722355;82;20149;-79
2021/06/16 06:39:00;;;;;;;;;;;;;;;36.01;24.90;97016.88;1720185;82;20183;-79
2021/06/16 06:41:27;;;;;;;;;;;;;;;36.00;26.49;97022.89;1720012;82;20098;-81
2021/06/16 06:43:53;;;;;;;;;;;;;;;36.02;24.57;97017.95;1720840;82;20154;-81
2021/06/16 06:46:21;;;;;;;;;;;;;;;36.22;25.30;97017.45;1721002;82;20148;-81
2021/06/16 06:48:47;;;;;;;;;;;;;;;36.31;24.60;97018.98;1719841;82;20127;-77
2021/06/16 06:51:13;;;;;;;;;;;;;;;35.80;24.64;97021.16;1720180;82;20137;-81
2021/06/16 06:53:39;;;;;;;;;;;;;;;35.88;25.55;97029.29;1720495;82;20105;-79
2021/06/16 06:56:06;;;;;;;;;;;;;;;35.98;27.63;97025.11;1724102;82;20101;-78
2021/06/16 06:58:34;;;;;;;;;;;;;;;36.20;25.23;97022.41;1726921;82;20131;-78
2021/06/16 07:01:00;;;;;;;;;;;;;;;36.19;24.21;97021.61;1723468;82;20137;-79
2021/06/16 07:03:27;;;;;;;;;;;;;;;35.70;26.88;97010.30;1719135;82;20105;-77
2021/06/16 07:05:54;;;;;;;;;;;;;;;34.94;24.90;97016.88;1719968;82;20161;-77
2021/06/16 07:08:20;;;;;;;;;;;;;;;34.85;29.54;97008.97;1715108;83;20114;-77
2021/06/16 07:10:46;;;;;;;;;;;;;;;34.89;25.67;97010.05;1714497;83;20133;-79
2021/06/16 07:13:12;;;;;;;;;;;;;;;34.51;26.64;97011.08;1719747;82;20145;-80
2021/06/16 07:15:39;;;;;;;;;;;;;;;34.24;27.31;97017.16;1705008;83;20107;-79
2021/06/16 07:18:05;;;;;;;;;;;;;;;33.56;28.62;97014.82;1701076;84;20113;-80
2021/06/16 07:20:31;;;;;;;;;;;;;;;32.95;27.89;97015.85;1709326;82;20103;-79
2021/06/16 07:22:57;;;;;;;;;;;;;;;32.85;27.20;97011.73;1699069;83;20150;-79
2021/06/16 07:25:24;;;;;;;;;;;;;;;33.27;26.50;97013.41;1722174;82;20153;-79
2021/06/16 07:27:50;;;;;;;;;;;;;;;33.64;26.65;97006.88;1703218;83;20404;-80
2021/06/16 07:30:17;;;;;;;;;;;;;;;33.98;25.80;97006.84;1700291;84;20109;-77
2021/06/16 07:32:44;;;;;;;;;;;;;;;34.13;25.98;97010.08;1700073;84;20427;-78
2021/06/16 07:35:11;;;;;;;;;;;;;;;34.47;25.25;97006.72;1698920;84;20415;-79
2021/06/16 07:37:37;;;;;;;;;;;;;;;34.78;26.51;97012.58;1700192;84;20103;-80
2021/06/16 07:40:08;;;;;;;;;;;;;;;35.01;27.83;97006.99;1697135;83;20112;-79
2021/06/16 07:42:34;;;;;;;;;;;;;;;34.92;24.09;97004.59;1698022;85;20112;-78
2021/06/16 07:45:00;;;;;;;;;;;;;;;34.81;24.48;97009.26;1698543;85;20198;-78
2021/06/16 07:47:26;;;;;;;;;;;;;;;34.53;24.51;97011.06;1699206;84;20121;-78
2021/06/16 07:49:52;;;;;;;;;;;;;;;34.66;24.65;97006.89;1698995;83;20126;-79
2021/06/16 07:52:19;;;;;;;;;;;;;;;34.87;25.08;97014.98;1699018;85;20395;-79
2021/06/16 07:54:45;;;;;;;;;;;;;;;34.73;25.73;97014.80;1698837;84;20099;-79
2021/06/16 07:57:12;;;;;;;;;;;;;;;34.16;27.20;97019.11;1696831;83;20098;-79
2021/06/16 07:59:38;;;;;;;;;;;;;;;33.48;25.29;97011.55;1699078;83;20446;-79
2021/06/16 08:02:05;;;;;;;;;;;;;;;33.04;26.43;97019.41;1698127;85;20442;-81
2021/06/16 08:04:32;;;;;;;;;;;;;;;31.91;27.14;97020.56;1698490;83;20099;-78
2021/06/16 08:06:58;;;;;;;;;;;;;;;31.80;28.91;97018.84;1711727;83;20105;-79
2021/06/16 08:09:24;;;;;;;;;;;;;;;31.54;28.48;97020.00;1702734;83;20428;-79
2021/06/16 08:11:51;;;;;;;;;;;;;;;30.67;28.76;97021.63;1699139;83;20423;-79
2021/06/16 08:14:17;;;;;;;;;;;;;;;30.34;29.84;97026.11;1745557;81;20099;-79
2021/06/16 08:16:43;;;;;;;;;;;;;;;30.53;30.13;97021.20;1741285;82;20139;-79
2021/06/16 08:19:09;;;;;;;;;;;;;;;30.71;29.42;97022.48;1731580;82;20096;-79
2021/06/16 08:21:35;;;;;;;;;;;;;;;29.99;29.69;97027.81;1727660;83;20093;-79
2021/06/16 08:24:01;;;;;;;;;;;;;;;29.36;30.75;97036.87;1727570;82;20939;-79
2021/06/16 08:26:27;;;;;;;;;;;;;;;29.64;30.89;97033.78;1723875;83;20433;-81
2021/06/16 08:28:53;;;;;;;;;;;;;;;30.08;30.73;97026.31;1727772;83;20100;-79
2021/06/16 08:31:20;;;;;;;;;;;;;;;30.58;29.89;97034.58;1721141;82;20117;-80
2021/06/16 08:33:46;;;;;;;;;;;;;;;31.05;29.04;97029.89;1732872;82;20121;-80
2021/06/16 08:36:12;;;;;;;;;;;;;;;31.21;29.06;97028.73;1769536;81;20168;-78
2021/06/16 08:38:42;;;;;;;;;;;;;;;31.15;28.94;97036.83;1726159;81;20141;-79
2021/06/16 08:41:09;;;;;;;;;;;;;;;30.41;29.75;97046.30;1718546;83;20434;-82
2021/06/16 08:43:41;;;;;;;;;;;;;;;30.28;30.47;97040.70;1721301;82;20381;-80
2021/06/16 08:46:09;;;;;;;;;;;;;;;30.43;30.38;97041.98;1734973;82;20415;-78
2021/06/16 08:48:37;;;;;;;;;;;;;;;30.90;30.27;97040.63;1745728;82;20126;-80
2021/06/16 08:51:04;;;;;;;;;;;;;;;31.37;29.59;97044.11;1707174;83;20102;-78
2021/06/16 08:53:31;;;;;;;;;;;;;;;31.77;28.78;97031.93;1726246;83;20190;-79
2021/06/16 08:55:57;;;;;;;;;;;;;;;31.82;29.34;97039.84;1725844;83;20162;-79
2021/06/16 08:58:23;;;;;;;;;;;;;;;30.90;29.20;97050.16;1726079;83;20174;-78
2021/06/16 09:00:50;;;;;;;;;;;;;;;30.35;30.59;97043.23;1726427;83;20124;-79
2021/06/16 09:03:16;;;;;;;;;;;;;;;30.01;31.03;97046.05;1726208;83;20386;-80
2021/06/16 09:05:42;;;;;;;;;;;;;;;29.76;31.48;97044.03;1718728;84;20414;-79
2021/06/16 09:08:22;;;;;;;;;;;;;;;29.33;31.83;97050.92;1723816;83;20144;-79
2021/06/16 09:10:50;;;;;;;;;;;;;;;28.70;32.71;97052.70;1726038;82;20154;-78
2021/06/16 09:13:25;;;;;;;;;;;;;;;28.27;33.29;97047.50;1748575;82;20128;-78
2021/06/16 09:15:54;;;;;;;;;;;;;;;28.11;33.88;97053.14;1715482;82;20095;-78
2021/06/16 09:18:20;;;;;;;;;;;;;;;28.26;33.85;97046.39;1709992;83;20111;-78
2021/06/16 09:20:48;;;;;;;;;;;;;;;28.57;34.02;97046.48;1707775;84;20213;-79
2021/06/16 09:23:18;;;;;;;;;;;;;;;28.86;33.65;97049.25;1709604;83;20103;-77
2021/06/16 09:26:07;;;;;;;;;;;;;;;29.21;33.18;97051.52;1704844;84;20155;-79
2021/06/16 09:28:45;;;;;;;;;;;;;;;29.25;32.43;97052.13;1719407;83;20158;-77
2021/06/16 09:31:13;;;;;;;;;;;;;;;28.65;32.50;97050.72;1709860;83;20182;-77
2021/06/16 09:33:39;;;;;;;;;;;;;;;28.34;32.90;97046.86;1713192;83;20523;-77
2021/06/16 09:36:15;;;;;;;;;;;;;;;28.15;33.47;97044.00;1738922;83;20401;-79
2021/06/16 09:38:44;;;;;;;;;;;;;;;28.16;33.32;97051.87;1734324;81;20088;-78
2021/06/16 09:41:11;;;;;;;;;;;;;;;28.21;32.95;97054.69;1723936;81;20111;-80
2021/06/16 09:43:38;;;;;;;;;;;;;;;27.75;33.53;97057.68;1710723;83;20135;-77
2021/06/16 09:46:07;;;;;;;;;;;;;;;27.31;34.62;97057.97;1737282;83;20131;-78
2021/06/16 09:48:36;;;;;;;;;;;;;;;27.05;34.79;97046.46;1713626;82;20102;-76
2021/06/16 09:51:18;;;;;;;;;;;;;;;27.18;34.91;97050.03;1702952;83;20145;-80
2021/06/16 09:54:13;;;;;;;;;;;;;;;27.23;34.64;97051.00;1709024;82;20163;-78
2021/06/16 09:56:45;;;;;;;;;;;;;;;27.09;34.68;97044.96;1709682;84;20409;-82
2021/06/16 09:59:13;;;;;;;;;;;;;;;27.36;34.91;97047.80;1660814;83;20386;-79
2021/06/16 10:01:49;;;;;;;;;;;;;;;27.45;34.90;97045.59;1709712;83;20111;-80
2021/06/16 10:04:33;;;;;;;;;;;;;;;27.57;34.49;97057.27;1714268;82;20514;-78
2021/06/16 10:07:29;;;;;;;;;;;;;;;27.36;34.67;97059.98;1638335;87;20461;-78
2021/06/16 10:09:58;;;;;;;;;;;;;;;27.23;34.99;97061.01;1720903;82;20379;-79
2021/06/16 10:12:28;;;;;;;;;;;;;;;27.25;35.07;97059.71;1709832;84;20146;-79
2021/06/16 10:14:55;;;;;;;;;;;;;;;27.22;35.02;97065.58;1732405;82;20132;-79
2021/06/16 10:17:22;;;;;;;;;;;;;;;27.15;34.95;97059.44;1711822;82;20099;-79
2021/06/16 10:19:49;;;;;;;;;;;;;;;27.08;35.42;97056.83;1708167;84;20138;-79
2021/06/16 10:22:16;;;;;;;;;;;;;;;27.15;35.14;97054.55;1723831;82;20108;-78
2021/06/16 10:24:44;;;;;;;;;;;;;;;27.12;35.15;97061.25;1722900;82;20112;-80
2021/06/16 10:27:18;;;;;;;;;;;;;;;26.91;34.68;97068.00;1706477;84;20103;-77
2021/06/16 10:29:44;;;;;;;;;;;;;;;26.51;35.22;97063.91;1704816;84;20143;-78
2021/06/16 10:32:11;;;;;;;;;;;;;;;26.33;35.78;97067.42;1680064;84;20099;-79
2021/06/16 10:34:55;;;;;;;;;;;;;;;26.48;35.93;97058.94;1711471;82;20124;-80
2021/06/16 10:37:36;;;;;;;;;;;;;;;26.62;34.75;97059.09;1720794;82;20095;-79
2021/06/16 10:40:22;;;;;;;;;;;;;;;26.79;34.97;97059.30;1743676;81;20104;-78
2021/06/16 10:43:05;;;;;;;;;;;;;;;26.82;34.33;97053.96;1740793;82;20108;-79
2021/06/16 10:45:33;;;;;;;;;;;;;;;26.58;34.21;97053.02;1727413;82;20107;-79
2021/06/16 10:48:08;;;;;;;;;;;;;;;26.53;34.75;97054.21;1708095;83;20107;-82
2021/06/16 10:50:51;;;;;;;;;;;;;;;26.75;34.62;97049.98;1710739;82;20103;-77
2021/06/16 10:53:19;;;;;;;;;;;;;;;27.11;34.68;97049.62;1716553;82;20158;-82
2021/06/16 10:55:58;;;;;;;;;;;;;;;27.48;34.14;97043.78;1709507;82;20135;-76
2021/06/16 10:58:31;;;;;;;;;;;;;;;27.65;33.64;97050.16;1711662;82;20131;-78
2021/06/16 11:01:17;;;;;;;;;;;;;;;27.47;34.07;97045.65;1708741;84;20111;-78
2021/06/16 11:03:53;;;;;;;;;;;;;;;27.26;34.03;97045.13;1709059;82;20122;-77
2021/06/16 11:06:37;;;;;;;;;;;;;;;26.98;34.60;97048.98;1701591;82;20535;-83
2021/06/16 11:09:07;;;;;;;;;;;;;;;26.60;35.16;97052.24;1709928;83;20100;-79
2021/06/16 11:11:49;;;;;;;;;;;;;;;26.47;35.70;97043.27;1709289;83;20110;-79
2021/06/16 11:14:37;;;;;;;;;;;;;;;26.56;35.65;97045.66;1683476;82;20113;-81
2021/06/16 11:17:05;;;;;;;;;;;;;;;26.67;36.14;97040.84;1749790;82;20099;-76
2021/06/16 11:19:40;;;;;;;;;;;;;;;26.83;36.00;97041.28;1747874;81;20105;-79
2021/06/16 11:22:16;;;;;;;;;;;;;;;26.92;35.68;97045.31;1729315;82;20112;-77
2021/06/16 11:25:20;;;;;;;;;;;;;;;26.81;35.74;97039.63;1732022;82;20454;-76
2021/06/16 11:28:12;;;;;;;;;;;;;;;26.81;35.57;97041.52;1747272;81;20107;-78
2021/06/16 11:30:42;;;;;;;;;;;;;;;26.78;35.43;97043.32;1699447;83;20135;-76
2021/06/16 11:33:21;;;;;;;;;;;;;;;26.69;35.37;97046.83;1747603;82;20477;-77
2021/06/16 11:36:00;;;;;;;;;;;;;;;26.48;35.79;97041.38;1696492;85;20107;-75
2021/06/16 11:38:31;;;;;;;;;;;;;;;26.62;35.30;97029.88;1698331;83;20088;-76
2021/06/16 11:41:16;;;;;;;;;;;;;;;26.85;35.03;97024.31;1700601;83;20112;-77
2021/06/16 11:43:45;;;;;;;;;;;;;;;27.03;34.27;97022.06;1636633;85;20435;-77
2021/06/16 11:46:15;;;;;;;;;;;;;;;27.29;34.67;97015.43;1638146;86;20190;-79
2021/06/16 11:48:43;;;;;;;;;;;;;;;27.30;34.27;97025.71;1634781;88;20116;-77
2021/06/16 11:51:09;;;;;;;;;;;;;;;27.00;35.22;97019.30;1635530;86;20145;-78
2021/06/16 11:53:39;;;;;;;;;;;;;;;26.95;35.43;97030.80;1648543;86;20406;-78
2021/06/16 11:56:08;;;;;;;;;;;;;;;26.77;35.88;97031.66;1641924;86;20120;-80
2021/06/16 11:58:39;;;;;;;;;;;;;;;26.63;35.29;97030.98;1643454;86;20107;-78
2021/06/16 12:01:16;;;;;;;;;;;;;;;26.53;35.76;97021.27;1642515;86;20468;-79
2021/06/16 12:03:45;;;;;;;;;;;;;;;26.55;35.79;97016.44;1651218;86;20430;-80
2021/06/16 12:06:16;;;;;;;;;;;;;;;26.59;35.30;97014.10;1663151;86;20410;-78
2021/06/16 12:08:43;;;;;;;;;;;;;;;26.59;35.05;97014.95;1650656;86;20116;-78
2021/06/16 12:11:18;;;;;;;;;;;;;;;26.51;35.11;97009.86;1658943;86;20274;-78
2021/06/16 12:14:03;;;;;;;;;;;;;;;26.48;34.98;97006.25;1653153;86;20123;-78
2021/06/16 12:16:40;;;;;;;;;;;;;;;26.41;35.20;97001.47;1637947;87;20108;-78
2021/06/16 12:19:15;;;;;;;;;;;;;;;26.24;35.92;97012.05;1623451;87;20172;-78
2021/06/16 12:22:02;;;;;;;;;;;;;;;26.14;36.43;97008.00;1668252;85;20107;-80
2021/06/16 12:24:32;;;;;;;;;;;;;;;26.18;36.35;97006.52;1715799;82;20135;-77
2021/06/16 12:27:12;;;;;;;;;;;;;;;26.24;36.27;96995.84;1702812;84;20115;-78
2021/06/16 12:29:45;;;;;;;;;;;;;;;26.23;36.07;96996.38;1691641;84;20119;-78
2021/06/16 12:32:26;;;;;;;;;;;;;;;26.24;35.82;96989.94;1688563;84;20119;-78
2021/06/16 12:36:11;;;;;;;;;;;;;;;26.23;35.71;96996.89;1685483;84;20102;-78
2021/06/16 12:37:53;;;;;;;;;;;;;;;26.16;35.81;96985.66;1693253;83;20101;-79
2021/06/16 12:40:30;;;;;;;;;;;;;;;26.23;36.29;96995.54;1718929;83;20388;-77
2021/06/16 12:42:56;;;;;;;;;;;;;;;26.24;36.87;96989.94;1723557;83;20115;-78
2021/06/16 12:45:40;;;;;;;;;;;;;;;26.30;36.59;96989.55;1706390;83;20103;-78
2021/06/16 12:48:26;;;;;;;;;;;;;;;26.24;36.98;96976.42;1719610;83;20415;-77
2021/06/16 12:50:58;;;;;;;;;;;;;;;26.38;36.87;96989.23;1711846;82;20169;-77
2021/06/16 12:53:25;;;;;;;;;;;;;;;26.18;37.62;96983.55;1711986;83;20114;-77
2021/06/16 12:55:57;;;;;;;;;;;;;;;26.17;37.64;96987.30;1725229;83;20114;-78
2021/06/16 12:58:24;;;;;;;;;;;;;;;26.41;37.27;96990.12;1723426;83;20161;-77
2021/06/16 13:00:51;;;;;;;;;;;;;;;26.63;36.86;96993.69;1716578;83;20124;-76